Time;durP1;ratioP1;P1;durP2;ratioP2;P2;SDS_P1;SDS_P2;PMS_P1;PMS_P2;Temp;Humidity;BMP_temperature;BMP_pressure;BME280_temperature;BME280_humidity;BME280_pressure;Samples;Min_cycle;Max_cycle;Signal;HPM_P1;HPM_P2
2023/01/02 00:00:44;;;;;;;4.70;2.20;;;;;;;8.30;100.00;96052.25;5008190;28;24993;-72
2023/01/02 00:03:12;;;;;;;5.72;2.00;;;;;;;8.34;100.00;96054.59;4999048;28;24464;-72
2023/01/02 00:05:39;;;;;;;3.80;1.80;;;;;;;8.35;100.00;96043.38;5000902;28;25017;-72
2023/01/02 00:08:05;;;;;;;3.60;1.80;;;;;;;8.36;100.00;96042.47;5011028;28;24998;-73
2023/01/02 00:10:32;;;;;;;4.75;1.80;;;;;;;8.44;100.00;96039.53;5002829;28;20799;-72
2023/01/02 00:12:58;;;;;;;3.13;1.80;;;;;;;8.60;100.00;96029.25;5009185;28;24444;-73
2023/01/02 00:15:25;;;;;;;6.60;2.08;;;;;;;8.55;100.00;96028.66;5004910;28;24436;-73
2023/01/02 00:17:51;;;;;;;6.25;2.05;;;;;;;8.52;100.00;96021.91;5010931;28;24451;-73
2023/01/02 00:20:19;;;;;;;5.10;2.00;;;;;;;8.55;100.00;96031.25;5010993;28;24441;-74
2023/01/02 00:22:45;;;;;;;5.63;1.95;;;;;;;8.54;100.00;96027.00;5004563;28;20802;-73
2023/01/02 00:25:12;;;;;;;3.63;2.10;;;;;;;8.60;100.00;96021.50;4999981;28;24440;-73
2023/01/02 00:27:38;;;;;;;5.60;1.95;;;;;;;8.54;100.00;96024.41;5005365;28;24432;-73
2023/01/02 00:30:06;;;;;;;3.22;1.90;;;;;;;8.43;100.00;96028.38;4996179;28;24440;-73
2023/01/02 00:32:32;;;;;;;8.25;2.15;;;;;;;8.43;100.00;96022.38;5007468;28;24448;-73
2023/01/02 00:34:59;;;;;;;4.40;1.92;;;;;;;8.37;100.00;96012.31;4997295;28;24440;-72
2023/01/02 00:37:26;;;;;;;7.03;1.92;;;;;;;8.36;100.00;96015.81;5010919;28;20783;-72
2023/01/02 00:39:53;;;;;;;2.67;2.03;;;;;;;8.34;100.00;96018.47;4998151;28;20825;-73
2023/01/02 00:42:19;;;;;;;6.70;2.00;;;;;;;8.31;100.00;96018.63;5002151;28;21342;-72
2023/01/02 00:44:46;;;;;;;5.57;2.03;;;;;;;8.34;100.00;96023.63;4999443;28;20776;-73
2023/01/02 00:47:12;;;;;;;2.45;1.60;;;;;;;8.37;100.00;96015.75;5003470;28;24447;-74
2023/01/02 00:49:39;;;;;;;3.08;1.70;;;;;;;8.37;100.00;96009.72;5001285;28;24448;-73
2023/01/02 00:52:05;;;;;;;5.13;2.25;;;;;;;8.39;100.00;96011.38;5001720;28;24452;-73
2023/01/02 00:54:33;;;;;;;5.07;2.05;;;;;;;8.43;100.00;96017.22;5004425;28;24447;-73
2023/01/02 00:56:59;;;;;;;4.95;2.40;;;;;;;8.47;100.00;96014.38;5000455;28;24999;-73
2023/01/02 00:59:26;;;;;;;13.20;2.45;;;;;;;8.53;100.00;96020.16;5000466;28;25009;-72
2023/01/02 01:01:52;;;;;;;3.33;2.05;;;;;;;8.53;100.00;96014.97;5001583;28;24989;-73
2023/01/02 01:04:19;;;;;;;6.60;2.03;;;;;;;8.47;100.00;96014.38;5005502;28;24487;-72
2023/01/02 01:06:45;;;;;;;5.70;2.13;;;;;;;8.43;100.00;96012.06;5003590;28;24449;-72
2023/01/02 01:09:12;;;;;;;6.30;2.28;;;;;;;8.37;100.00;96007.16;4998745;28;24448;-73
2023/01/02 01:11:40;;;;;;;2.90;1.70;;;;;;;8.37;100.00;96012.31;5001728;28;20867;-73
2023/01/02 01:14:06;;;;;;;6.45;2.08;;;;;;;8.36;100.00;96024.38;5001040;28;20810;-72
2023/01/02 01:16:33;;;;;;;5.60;1.80;;;;;;;8.39;100.00;96016.53;5000690;28;25014;-73
2023/01/02 01:18:59;;;;;;;4.97;2.23;;;;;;;8.43;100.00;96027.53;5002352;28;24440;-73
2023/01/02 01:21:26;;;;;;;3.67;1.85;;;;;;;8.41;100.00;96017.28;5000459;28;24993;-73
2023/01/02 01:23:54;;;;;;;5.75;2.13;;;;;;;8.42;100.00;96020.72;4999317;28;24859;-72
2023/01/02 01:26:21;;;;;;;3.20;2.03;;;;;;;8.45;100.00;96011.06;5006379;28;24792;-73
2023/01/02 01:28:51;;;;;;;4.15;1.90;;;;;;;8.49;100.00;96011.72;4999261;28;24450;-72
2023/01/02 01:31:18;;;;;;;3.22;2.10;;;;;;;8.55;100.00;96005.44;5000521;28;25028;-73
2023/01/02 01:33:45;;;;;;;4.30;1.98;;;;;;;8.57;100.00;96013.94;5005899;28;20781;-73
2023/01/02 01:36:13;;;;;;;4.88;2.15;;;;;;;8.50;100.00;96025.50;5008565;28;24973;-72
2023/01/02 01:38:40;;;;;;;8.18;2.50;;;;;;;8.56;100.00;96018.25;5004131;28;24436;-73
2023/01/02 01:41:07;;;;;;;8.23;2.27;;;;;;;8.62;100.00;96010.19;5000600;28;24447;-73
2023/01/02 01:43:40;;;;;;;3.35;1.92;;;;;;;8.72;100.00;96018.31;5001247;28;24460;-73
2023/01/02 01:46:17;;;;;;;4.43;2.05;;;;;;;8.79;100.00;96017.09;5000591;28;24456;-74
2023/01/02 01:48:46;;;;;;;7.87;1.80;;;;;;;8.83;100.00;96022.94;5001625;28;24443;-73
2023/01/02 01:51:13;;;;;;;4.15;2.20;;;;;;;8.96;100.00;96021.38;5004006;28;24452;-73
2023/01/02 01:53:41;;;;;;;4.57;2.25;;;;;;;8.92;100.00;96019.84;5004958;28;24421;-73
2023/01/02 01:56:11;;;;;;;5.32;1.83;;;;;;;8.86;100.00;96010.69;4995572;28;24439;-73
2023/01/02 01:58:42;;;;;;;4.72;2.00;;;;;;;8.85;100.00;96021.09;5001558;28;20812;-72
2023/01/02 02:01:11;;;;;;;6.57;2.50;;;;;;;8.85;100.00;96023.66;5005048;28;24451;-72
2023/01/02 02:03:41;;;;;;;5.35;1.95;;;;;;;8.89;100.00;96015.69;4997439;28;20815;-73
2023/01/02 02:06:08;;;;;;;7.20;2.42;;;;;;;8.88;100.00;96015.78;4996194;28;24890;-73
2023/01/02 02:08:42;;;;;;;4.95;1.98;;;;;;;8.83;100.00;96010.84;5001840;28;24437;-73
2023/01/02 02:11:09;;;;;;;6.93;2.15;;;;;;;8.83;100.00;96008.25;5003418;28;24439;-73
2023/01/02 02:13:36;;;;;;;4.85;2.10;;;;;;;8.83;100.00;96004.84;5006591;28;24459;-73
2023/01/02 02:16:18;;;;;;;4.75;2.15;;;;;;;8.90;100.00;96003.63;5000029;28;25062;-73
2023/01/02 02:18:59;;;;;;;3.13;1.92;;;;;;;8.86;100.00;95997.78;5007762;28;20757;-73
2023/01/02 02:21:44;;;;;;;3.42;1.70;;;;;;;8.76;100.00;96001.75;4997134;28;24441;-72
2023/01/02 02:24:48;;;;;;;3.30;1.63;;;;;;;8.69;100.00;95998.66;4983818;28;24457;-73
2023/01/02 02:27:31;;;;;;;4.90;2.13;;;;;;;8.66;100.00;96003.13;4980016;28;20805;-72
2023/01/02 02:30:10;;;;;;;3.42;1.75;;;;;;;8.64;100.00;96007.53;4988063;28;21108;-72
2023/01/02 02:32:58;;;;;;;4.82;2.00;;;;;;;8.65;100.00;95996.31;4985483;28;24920;-73
2023/01/02 02:35:34;;;;;;;4.43;1.85;;;;;;;8.68;100.00;96001.31;4967026;28;24438;-73
2023/01/02 02:38:06;;;;;;;8.07;1.80;;;;;;;8.62;100.00;95996.47;4981802;28;24456;-73
2023/01/02 02:40:42;;;;;;;3.27;2.00;;;;;;;8.62;100.00;95991.28;4985307;28;20752;-73
2023/01/02 02:43:17;;;;;;;6.88;2.28;;;;;;;8.68;100.00;95985.81;4987184;28;20817;-73
2023/01/02 02:45:53;;;;;;;2.28;1.80;;;;;;;8.67;100.00;95978.97;4977396;28;24464;-73
2023/01/02 02:48:26;;;;;;;4.03;2.10;;;;;;;8.61;100.00;95967.22;4978201;28;24805;-72
2023/01/02 02:51:00;;;;;;;6.43;2.28;;;;;;;8.58;100.00;95969.97;4983031;28;20704;-73
2023/01/02 02:53:32;;;;;;;4.90;2.20;;;;;;;8.52;100.00;95961.69;4990189;28;20768;-72
2023/01/02 02:56:05;;;;;;;4.85;2.03;;;;;;;8.46;100.00;95965.44;4983822;28;24431;-73
2023/01/02 02:58:32;;;;;;;6.47;2.53;;;;;;;8.48;100.00;95969.59;4986741;28;24998;-73
2023/01/02 03:01:06;;;;;;;7.13;2.20;;;;;;;8.50;100.00;95969.53;4982320;28;20784;-73
2023/01/02 03:03:33;;;;;;;5.97;2.25;;;;;;;8.52;100.00;95972.03;4979127;28;20734;-73
2023/01/02 03:06:09;;;;;;;7.35;2.20;;;;;;;8.51;100.00;95972.94;4984688;28;24432;-73
2023/01/02 03:08:44;;;;;;;4.63;1.90;;;;;;;8.49;100.00;95973.00;4974820;28;20788;-73
2023/01/02 03:11:11;;;;;;;3.42;1.90;;;;;;;8.50;100.00;95973.88;4981825;28;20793;-73
2023/01/02 03:13:42;;;;;;;7.07;2.30;;;;;;;8.47;100.00;95967.94;4978277;28;24808;-72
2023/01/02 03:16:18;;;;;;;3.47;1.95;;;;;;;8.52;100.00;95964.28;4980754;28;20809;-73
2023/01/02 03:18:54;;;;;;;3.13;1.95;;;;;;;8.46;100.00;95970.59;4975640;28;21025;-73
2023/01/02 03:21:27;;;;;;;3.42;1.85;;;;;;;8.43;100.00;95969.00;4980538;28;20784;-72
2023/01/02 03:23:58;;;;;;;3.30;1.60;;;;;;;8.39;100.00;95966.66;4975513;28;24532;-73
2023/01/02 03:26:29;;;;;;;3.00;1.80;;;;;;;8.32;100.00;95971.25;4989743;28;21371;-73
2023/01/02 03:29:01;;;;;;;7.77;2.10;;;;;;;8.31;100.00;95974.78;4983004;28;20734;-73
2023/01/02 03:31:32;;;;;;;4.93;1.98;;;;;;;8.25;100.00;95975.06;4980607;28;20774;-73
2023/01/02 03:34:04;;;;;;;5.28;2.00;;;;;;;8.18;100.00;95971.13;4975257;28;21087;-73
2023/01/02 03:36:33;;;;;;;2.75;1.75;;;;;;;8.12;100.00;95971.41;4981955;28;20787;-73
2023/01/02 03:39:05;;;;;;;3.22;1.88;;;;;;;8.08;100.00;95978.47;4984412;28;21351;-73
2023/01/02 03:41:36;;;;;;;4.30;1.90;;;;;;;8.10;100.00;95973.25;4985651;28;24523;-73
2023/01/02 03:44:05;;;;;;;3.88;2.35;;;;;;;8.12;100.00;95976.56;4975893;28;24464;-73
2023/01/02 03:46:38;;;;;;;6.35;1.95;;;;;;;8.12;100.00;95974.84;4989922;28;24444;-73
2023/01/02 03:49:09;;;;;;;4.85;2.10;;;;;;;8.15;100.00;95974.69;4980688;28;20763;-72
2023/01/02 03:51:36;;;;;;;4.10;1.90;;;;;;;8.16;100.00;95967.81;4975785;28;20770;-73
2023/01/02 03:54:05;;;;;;;3.28;1.88;;;;;;;8.17;100.00;95966.88;4981207;28;20774;-73
2023/01/02 03:56:42;;;;;;;5.30;2.08;;;;;;;8.19;100.00;95962.47;4989362;28;20784;-73
2023/01/02 03:59:18;;;;;;;3.95;1.55;;;;;;;8.14;100.00;95964.44;4978128;28;20820;-73
2023/01/02 04:01:51;;;;;;;5.15;2.03;;;;;;;8.09;100.00;95959.53;4977503;28;21229;-73
2023/01/02 04:04:22;;;;;;;3.28;1.67;;;;;;;8.12;100.00;95969.69;4985237;28;24464;-73
2023/01/02 04:06:54;;;;;;;3.45;1.90;;;;;;;8.10;100.00;95966.34;4987151;28;24456;-72
2023/01/02 04:09:24;;;;;;;3.28;1.73;;;;;;;8.12;100.00;95963.69;4984576;28;20695;-73
2023/01/02 04:11:55;;;;;;;5.47;2.22;;;;;;;8.12;100.00;95964.53;4981789;28;20784;-73
2023/01/02 04:14:28;;;;;;;4.33;1.70;;;;;;;8.13;100.00;95955.88;4984862;28;20838;-72
2023/01/02 04:16:59;;;;;;;3.17;1.60;;;;;;;8.10;100.00;95958.59;4988170;28;20756;-73
2023/01/02 04:19:32;;;;;;;3.83;1.65;;;;;;;8.07;100.00;95958.75;4981999;28;20816;-73
2023/01/02 04:22:03;;;;;;;5.30;2.10;;;;;;;8.05;100.00;95949.44;4989039;28;20774;-74
2023/01/02 04:24:33;;;;;;;5.85;1.55;;;;;;;8.02;100.00;95953.00;5002771;28;20707;-73
2023/01/02 04:27:05;;;;;;;4.68;1.60;;;;;;;7.96;100.00;95948.97;5007097;28;21117;-72
2023/01/02 04:29:31;;;;;;;6.05;1.90;;;;;;;7.95;100.00;95943.91;5002624;28;20690;-73
2023/01/02 04:32:07;;;;;;;2.53;1.70;;;;;;;7.92;100.00;95955.19;4997122;28;24445;-73
2023/01/02 04:34:36;;;;;;;3.17;1.67;;;;;;;7.88;100.00;95951.09;5005096;28;24437;-73
2023/01/02 04:37:03;;;;;;;3.33;2.03;;;;;;;7.85;100.00;95953.81;5002219;28;20826;-73
2023/01/02 04:39:29;;;;;;;6.53;2.10;;;;;;;7.89;100.00;95939.03;5002347;28;24444;-73
2023/01/02 04:41:56;;;;;;;4.50;2.00;;;;;;;7.94;100.00;95948.22;5004494;28;20787;-73
2023/01/02 04:44:22;;;;;;;6.65;2.10;;;;;;;7.97;100.00;95948.06;5011632;28;21699;-73
2023/01/02 04:46:49;;;;;;;4.55;1.98;;;;;;;8.02;100.00;95954.75;5009327;28;25004;-72
2023/01/02 04:49:16;;;;;;;4.47;1.90;;;;;;;7.95;100.00;95944.72;5011793;28;20797;-73
2023/01/02 04:51:43;;;;;;;4.50;2.10;;;;;;;7.83;100.00;95949.66;5004883;28;24456;-74
2023/01/02 04:54:11;;;;;;;3.57;1.90;;;;;;;7.85;100.00;95948.66;5011426;28;20781;-73
2023/01/02 04:56:37;;;;;;;4.32;2.00;;;;;;;7.77;100.00;95950.78;5011714;28;20832;-73
2023/01/02 04:59:04;;;;;;;4.40;2.00;;;;;;;7.70;100.00;95960.56;5009466;28;24436;-73
2023/01/02 05:01:30;;;;;;;3.70;1.90;;;;;;;7.69;100.00;95950.34;5007499;28;24452;-73
2023/01/02 05:03:57;;;;;;;4.10;1.73;;;;;;;7.69;100.00;95961.47;5002099;28;24546;-73
2023/01/02 05:06:24;;;;;;;2.78;1.60;;;;;;;7.72;100.00;95963.91;5002941;28;24436;-73
2023/01/02 05:08:51;;;;;;;2.75;1.70;;;;;;;7.62;100.00;95962.69;5002401;28;20767;-73
2023/01/02 05:11:19;;;;;;;3.27;1.90;;;;;;;7.65;100.00;95956.56;5000840;28;24532;-73
2023/01/02 05:13:45;;;;;;;4.60;2.00;;;;;;;7.61;100.00;95952.44;5001294;28;20817;-73
2023/01/02 05:16:12;;;;;;;3.40;1.92;;;;;;;7.55;100.00;95956.13;5007241;28;24428;-73
2023/01/02 05:18:39;;;;;;;4.82;2.00;;;;;;;7.60;100.00;95955.91;4999115;28;20784;-73
2023/01/02 05:23:47;;;;;;;5.45;2.30;;;;;;;7.61;100.00;95961.00;5004053;28;22049;-73
2023/01/02 05:23:58;;;;;;;4.05;1.92;;;;;;;7.55;100.00;95957.88;5000980;28;21030;-73
2023/01/02 05:26:25;;;;;;;3.53;1.87;;;;;;;7.51;100.00;95949.47;4998083;28;20895;-73
2023/01/02 05:28:52;;;;;;;4.57;1.98;;;;;;;7.43;100.00;95955.00;5002079;28;20787;-73
2023/01/02 05:31:18;;;;;;;4.28;1.95;;;;;;;7.43;100.00;95954.16;5004232;28;20782;-73
2023/01/02 05:33:45;;;;;;;3.45;2.00;;;;;;;7.43;100.00;95959.31;4998414;28;21326;-73
2023/01/02 05:36:11;;;;;;;4.70;2.10;;;;;;;7.38;100.00;95953.53;5006710;28;24436;-72
2023/01/02 05:38:38;;;;;;;4.90;1.95;;;;;;;7.41;100.00;95953.38;4999528;28;20795;-73
2023/01/02 05:41:07;;;;;;;6.47;2.07;;;;;;;7.38;100.00;95956.97;4999413;28;20840;-72
2023/01/02 05:43:35;;;;;;;5.43;2.53;;;;;;;7.34;100.00;95958.00;5004891;28;20778;-74
2023/01/02 05:46:07;;;;;;;4.32;1.90;;;;;;;7.26;100.00;95960.91;5002135;28;20828;-74
2023/01/02 05:48:33;;;;;;;6.03;2.10;;;;;;;7.21;100.00;95962.06;4998784;28;20730;-74
2023/01/02 05:51:01;;;;;;;4.60;2.10;;;;;;;7.19;100.00;95966.44;4997415;28;20775;-73
2023/01/02 05:53:27;;;;;;;6.05;2.05;;;;;;;7.12;100.00;95962.47;4994198;28;20829;-74
2023/01/02 05:55:54;;;;;;;7.38;2.42;;;;;;;7.08;100.00;95966.91;4997687;28;20782;-74
2023/01/02 05:58:22;;;;;;;5.78;2.60;;;;;;;7.05;100.00;95971.41;4999079;28;20772;-74
2023/01/02 06:00:48;;;;;;;5.15;2.40;;;;;;;7.05;100.00;95967.09;4999828;28;20817;-73
2023/01/02 06:03:15;;;;;;;10.30;2.73;;;;;;;7.05;100.00;95966.25;4999482;28;24432;-73
2023/01/02 06:05:41;;;;;;;6.27;2.17;;;;;;;7.11;100.00;95971.09;4995824;28;24811;-73
2023/01/02 06:08:07;;;;;;;7.30;2.20;;;;;;;7.09;100.00;95973.75;4998883;28;24795;-74
2023/01/02 06:10:34;;;;;;;4.82;1.88;;;;;;;7.12;100.00;95970.19;5006613;28;21149;-74
2023/01/02 06:13:00;;;;;;;7.05;1.90;;;;;;;7.20;100.00;95961.22;5007787;28;24440;-74
2023/01/02 06:15:28;;;;;;;4.75;2.00;;;;;;;7.22;100.00;95963.72;5007074;28;24433;-73
2023/01/02 06:17:55;;;;;;;5.13;2.00;;;;;;;7.31;100.00;95965.06;5006656;28;21376;-73
2023/01/02 06:20:21;;;;;;;3.67;2.03;;;;;;;7.36;100.00;95969.06;5002616;28;21136;-72
2023/01/02 06:22:47;;;;;;;4.75;2.33;;;;;;;7.32;100.00;95970.13;5007083;28;24455;-72
2023/01/02 06:25:14;;;;;;;4.65;2.10;;;;;;;7.32;100.00;95974.44;4998795;28;24463;-75
2023/01/02 06:27:41;;;;;;;4.88;2.08;;;;;;;7.33;100.00;95970.94;5006267;28;24440;-74
2023/01/02 06:30:09;;;;;;;4.67;2.27;;;;;;;7.30;100.00;95973.66;5003804;28;20790;-74
2023/01/02 06:32:37;;;;;;;3.58;1.65;;;;;;;7.32;100.00;95980.44;5000589;28;20778;-74
2023/01/02 06:35:03;;;;;;;7.03;1.92;;;;;;;7.31;100.00;95978.75;5010875;28;20812;-74
2023/01/02 06:37:30;;;;;;;5.80;1.92;;;;;;;7.35;100.00;95985.44;5010690;28;24436;-74
2023/01/02 06:39:56;;;;;;;4.43;2.00;;;;;;;7.32;100.00;95995.88;5010124;28;20774;-74
2023/01/02 06:42:23;;;;;;;5.53;2.20;;;;;;;7.35;100.00;95995.75;5002051;28;24440;-75
2023/01/02 06:44:49;;;;;;;4.28;2.22;;;;;;;7.41;100.00;95992.88;5007156;28;20791;-75
2023/01/02 06:47:16;;;;;;;4.45;2.20;;;;;;;7.34;100.00;95994.09;5004908;28;24437;-74
2023/01/02 06:49:43;;;;;;;3.92;2.10;;;;;;;7.34;100.00;95988.94;5001144;28;24990;-76
2023/01/02 06:52:10;;;;;;;3.28;1.95;;;;;;;7.30;100.00;95989.13;5003277;28;20822;-74
2023/01/02 06:54:36;;;;;;;4.10;2.10;;;;;;;7.38;100.00;96000.75;5006553;28;21229;-74
2023/01/02 06:57:03;;;;;;;4.32;2.10;;;;;;;7.47;100.00;96005.47;5005214;28;21297;-74
2023/01/02 06:59:29;;;;;;;2.97;1.90;;;;;;;7.39;100.00;96011.91;4997437;28;24835;-74
2023/01/02 07:01:55;;;;;;;12.30;2.17;;;;;;;7.35;100.00;96026.66;5002687;28;24448;-75
2023/01/02 07:04:22;;;;;;;4.43;1.92;;;;;;;7.31;100.00;96022.56;4999983;28;24475;-74
2023/01/02 07:06:50;;;;;;;2.60;1.70;;;;;;;7.34;100.00;96026.72;5002441;28;24467;-74
2023/01/02 07:09:16;;;;;;;5.07;1.77;;;;;;;7.33;100.00;96022.47;5005321;28;20866;-74
2023/01/02 07:11:43;;;;;;;2.85;1.88;;;;;;;7.32;100.00;96021.66;5009227;28;24444;-74
2023/01/02 07:14:09;;;;;;;6.47;2.15;;;;;;;7.36;100.00;96023.19;4996527;28;25003;-74
2023/01/02 07:16:36;;;;;;;2.60;1.73;;;;;;;7.51;100.00;96025.03;4990429;28;24444;-74
2023/01/02 07:19:02;;;;;;;5.15;2.20;;;;;;;7.51;100.00;96027.63;5005356;28;24446;-74
2023/01/02 07:21:29;;;;;;;4.55;2.28;;;;;;;7.61;100.00;96033.19;4994180;28;24448;-74
2023/01/02 07:23:57;;;;;;;2.65;1.83;;;;;;;7.52;100.00;96029.28;4988515;28;25021;-74
2023/01/02 07:26:24;;;;;;;7.53;2.10;;;;;;;7.49;100.00;96021.72;4984250;28;20827;-73
2023/01/02 07:28:50;;;;;;;4.45;1.98;;;;;;;7.54;100.00;96030.97;4982458;28;24445;-74
2023/01/02 07:31:19;;;;;;;3.58;2.03;;;;;;;7.46;100.00;96027.00;4983075;28;24441;-74
2023/01/02 07:33:45;;;;;;;5.72;2.03;;;;;;;7.51;100.00;96037.94;4988049;28;20776;-74
2023/01/02 07:36:14;;;;;;;3.90;2.03;;;;;;;7.55;100.00;96035.22;4985912;28;24437;-74
2023/01/02 07:38:40;;;;;;;3.05;2.20;;;;;;;7.47;100.00;96036.41;4989512;28;24440;-74
2023/01/02 07:41:14;;;;;;;4.35;2.05;;;;;;;7.43;100.00;96034.03;4977738;28;24982;-74
2023/01/02 07:43:41;;;;;;;5.05;1.98;;;;;;;7.46;100.00;96042.47;4984403;28;20718;-74
2023/01/02 07:46:07;;;;;;;4.85;2.25;;;;;;;7.43;100.00;96045.19;4985615;28;21346;-73
2023/01/02 07:48:34;;;;;;;6.88;2.45;;;;;;;7.39;100.00;96050.56;4984988;28;21128;-75
2023/01/02 07:51:01;;;;;;;5.10;1.83;;;;;;;7.42;100.00;96037.53;4981502;28;24440;-74
2023/01/02 07:53:27;;;;;;;7.83;2.30;;;;;;;7.42;100.00;96032.38;4983687;28;21228;-73
2023/01/02 07:55:54;;;;;;;6.05;2.33;;;;;;;7.41;100.00;96044.41;4979419;28;20775;-74
2023/01/02 07:58:22;;;;;;;6.95;2.30;;;;;;;7.38;100.00;96041.13;4982810;28;24437;-74
2023/01/02 08:00:49;;;;;;;7.17;2.10;;;;;;;7.31;100.00;96040.59;4987217;28;21341;-74
2023/01/02 08:03:16;;;;;;;5.50;1.88;;;;;;;7.21;100.00;96039.34;4981832;28;24792;-74
2023/01/02 08:05:42;;;;;;;3.63;2.00;;;;;;;7.15;100.00;96047.31;4992431;28;20796;-74
2023/01/02 08:08:09;;;;;;;5.43;2.08;;;;;;;7.12;100.00;96053.47;4987984;28;20783;-73
2023/01/02 08:10:36;;;;;;;6.00;2.28;;;;;;;7.11;100.00;96058.69;4991568;28;20787;-73
2023/01/02 08:13:02;;;;;;;8.50;1.95;;;;;;;7.11;100.00;96056.94;4982679;28;24533;-73
2023/01/02 08:15:31;;;;;;;3.47;1.88;;;;;;;7.13;100.00;96065.44;4987611;28;20785;-73
2023/01/02 08:17:58;;;;;;;5.43;2.38;;;;;;;7.19;100.00;96061.75;4987032;28;24808;-73
2023/01/02 08:20:25;;;;;;;4.03;2.13;;;;;;;7.17;100.00;96073.88;4987909;28;24444;-71
2023/01/02 08:22:52;;;;;;;4.00;2.07;;;;;;;7.06;100.00;96071.75;4997258;28;20835;-71
2023/01/02 08:25:19;;;;;;;5.97;2.28;;;;;;;7.02;100.00;96071.06;4998053;28;20792;-71
2023/01/02 08:27:46;;;;;;;10.95;2.15;;;;;;;7.00;100.00;96075.44;5002220;28;24796;-68
2023/01/02 08:30:12;;;;;;;3.77;1.83;;;;;;;7.03;100.00;96072.72;5004584;28;24853;-72
2023/01/02 08:32:41;;;;;;;4.40;2.00;;;;;;;6.99;100.00;96070.34;5009916;28;24810;-72
2023/01/02 08:35:09;;;;;;;5.72;2.38;;;;;;;6.97;100.00;96070.44;5004302;28;21340;-72
2023/01/02 08:37:35;;;;;;;5.63;2.17;;;;;;;6.99;100.00;96075.50;5006935;28;21386;-72
2023/01/02 08:40:02;;;;;;;7.32;2.00;;;;;;;7.01;100.00;96071.97;5004805;28;25017;-72
2023/01/02 08:42:28;;;;;;;7.82;3.03;;;;;;;7.07;100.00;96078.56;5004943;28;20880;-72
2023/01/02 08:44:55;;;;;;;4.07;2.10;;;;;;;7.13;100.00;96083.47;5005488;28;20817;-72
2023/01/02 08:47:21;;;;;;;4.40;2.30;;;;;;;7.23;100.00;96089.03;5006054;28;20779;-73
2023/01/02 08:49:49;;;;;;;3.75;2.10;;;;;;;7.31;100.00;96083.56;5006165;28;20782;-72
2023/01/02 08:52:16;;;;;;;4.35;2.00;;;;;;;7.34;100.00;96076.53;5004546;28;20825;-72
2023/01/02 08:54:42;;;;;;;4.93;2.30;;;;;;;7.47;100.00;96087.09;5006942;28;20782;-72
2023/01/02 08:57:08;;;;;;;6.35;2.55;;;;;;;7.48;100.00;96089.59;5006978;28;20808;-72
2023/01/02 08:59:35;;;;;;;8.05;2.85;;;;;;;7.61;100.00;96087.31;5006377;28;24443;-72
2023/01/02 09:02:01;;;;;;;3.75;1.92;;;;;;;7.67;100.00;96094.75;5004928;28;24449;-72
2023/01/02 09:04:28;;;;;;;5.28;2.30;;;;;;;7.67;100.00;96097.31;5006649;28;24432;-72
2023/01/02 09:06:56;;;;;;;4.10;2.00;;;;;;;7.70;100.00;96093.78;5004562;28;24455;-72
2023/01/02 09:09:22;;;;;;;5.90;2.33;;;;;;;7.82;100.00;96093.19;5003556;28;24464;-72
2023/01/02 09:11:50;;;;;;;8.82;2.13;;;;;;;7.98;100.00;96096.75;5003168;28;24451;-74
2023/01/02 09:14:18;;;;;;;4.72;2.28;;;;;;;7.98;100.00;96107.06;5002914;28;20778;-74
2023/01/02 09:16:44;;;;;;;7.38;2.15;;;;;;;8.14;100.00;96101.19;5001628;28;20772;-74
2023/01/02 09:19:11;;;;;;;5.57;2.20;;;;;;;8.34;100.00;96102.78;4998304;28;25301;-74
2023/01/02 09:21:38;;;;;;;3.55;2.20;;;;;;;8.39;100.00;96103.44;5001939;28;21334;-74
2023/01/02 09:24:07;;;;;;;7.43;2.15;;;;;;;8.38;100.00;96105.19;5007803;28;24451;-74
2023/01/02 09:26:33;;;;;;;8.45;2.30;;;;;;;8.43;100.00;96100.63;5001678;28;20822;-73
2023/01/02 09:29:00;;;;;;;7.80;2.45;;;;;;;8.40;100.00;96116.28;5008905;28;24463;-74
2023/01/02 09:31:26;;;;;;;4.90;2.20;;;;;;;8.45;100.00;96123.78;4999742;28;20778;-74
2023/01/02 09:33:54;;;;;;;5.00;2.60;;;;;;;8.45;100.00;96116.91;5001843;28;20805;-73
2023/01/02 09:36:21;;;;;;;6.32;2.33;;;;;;;8.50;100.00;96129.56;4997238;28;24464;-74
2023/01/02 09:38:52;;;;;;;6.55;2.85;;;;;;;8.53;100.00;96133.72;5009292;28;21141;-74
2023/01/02 09:41:31;;;;;;;8.75;3.10;;;;;;;8.47;100.00;96140.88;5005568;28;20804;-74
2023/01/02 09:44:01;;;;;;;8.23;4.20;;;;;;;8.53;100.00;96138.91;5003297;28;24459;-74
2023/01/02 09:46:35;;;;;;;6.50;2.50;;;;;;;8.49;100.00;96138.19;4999525;28;20762;-73
2023/01/02 09:49:02;;;;;;;7.05;3.00;;;;;;;8.44;100.00;96138.44;5002444;28;21301;-73
2023/01/02 09:51:29;;;;;;;7.78;2.83;;;;;;;8.42;100.00;96140.28;5003484;28;20779;-74
2023/01/02 09:53:55;;;;;;;4.40;2.80;;;;;;;8.46;100.00;96148.72;5004638;28;20782;-73
2023/01/02 09:56:29;;;;;;;11.25;2.63;;;;;;;8.52;100.00;96144.97;4999387;28;20815;-73
2023/01/02 09:59:02;;;;;;;3.78;2.40;;;;;;;8.68;100.00;96156.25;5003179;28;20684;-72
2023/01/02 10:01:35;;;;;;;3.35;2.40;;;;;;;8.85;100.00;96148.47;5003909;28;20667;-73
2023/01/02 10:04:15;;;;;;;7.57;2.17;;;;;;;8.98;100.00;96153.88;4999974;28;20704;-73
2023/01/02 10:06:47;;;;;;;5.97;2.50;;;;;;;9.15;100.00;96155.59;4998339;28;20721;-73
2023/01/02 10:09:18;;;;;;;6.78;2.30;;;;;;;9.29;100.00;96168.66;5004931;28;20792;-73
2023/01/02 10:11:58;;;;;;;8.88;2.53;;;;;;;9.40;100.00;96163.75;5010418;28;24443;-73
2023/01/02 10:14:37;;;;;;;4.82;2.15;;;;;;;9.57;100.00;96167.25;4999795;28;24435;-74
2023/01/02 10:17:07;;;;;;;6.20;2.55;;;;;;;9.62;100.00;96163.47;5006238;28;24974;-74
2023/01/02 10:19:41;;;;;;;6.80;2.10;;;;;;;9.74;100.00;96162.00;5005689;28;21444;-74
2023/01/02 10:22:12;;;;;;;10.93;2.50;;;;;;;9.93;99.97;96165.25;4996173;28;24991;-74
2023/01/02 10:24:45;;;;;;;5.20;2.35;;;;;;;10.09;99.66;96154.09;4986968;28;25729;-74
2023/01/02 10:27:19;;;;;;;12.57;2.35;;;;;;;10.34;100.00;96153.59;4974073;28;24457;-74
2023/01/02 10:29:51;;;;;;;7.43;2.35;;;;;;;10.62;96.34;96152.88;4987875;28;24436;-74
2023/01/02 10:32:20;;;;;;;7.80;2.70;;;;;;;10.89;92.49;96159.06;4975640;28;24820;-74
2023/01/02 10:34:56;;;;;;;7.85;2.38;;;;;;;11.04;93.15;96159.09;4985511;28;25356;-74
2023/01/02 10:37:23;;;;;;;5.40;2.30;;;;;;;11.21;91.08;96158.13;4980639;28;24433;-74
2023/01/02 10:39:50;;;;;;;5.63;2.10;;;;;;;11.34;90.82;96156.47;4984414;28;24891;-74
2023/01/02 10:42:18;;;;;;;10.25;2.60;;;;;;;11.49;89.16;96154.69;4982136;28;24543;-74
2023/01/02 10:44:46;;;;;;;12.25;2.55;;;;;;;11.59;89.43;96146.28;4984103;28;25171;-75
2023/01/02 10:47:20;;;;;;;4.77;2.17;;;;;;;11.83;86.96;96149.19;4978524;28;25022;-74
2023/01/02 10:49:47;;;;;;;7.20;2.58;;;;;;;12.01;85.32;96149.78;4987495;28;24437;-74
2023/01/02 10:52:20;;;;;;;6.10;2.80;;;;;;;12.05;83.72;96147.81;4974670;28;24437;-74
2023/01/02 10:54:50;;;;;;;7.95;3.00;;;;;;;12.13;83.11;96150.78;4985187;28;24440;-74
2023/01/02 10:57:23;;;;;;;7.88;2.17;;;;;;;12.30;78.42;96150.53;4983119;28;24448;-74
2023/01/02 10:59:55;;;;;;;8.68;3.00;;;;;;;12.55;77.82;96154.19;4983618;28;25013;-74
2023/01/02 11:02:27;;;;;;;8.15;2.42;;;;;;;12.75;77.00;96155.47;4989024;28;24448;-74
2023/01/02 11:04:53;;;;;;;11.55;3.15;;;;;;;12.91;77.16;96153.56;4987242;28;24445;-74
2023/01/02 11:07:25;;;;;;;10.05;3.55;;;;;;;13.04;78.17;96153.56;4989021;28;24456;-74
2023/01/02 11:09:54;;;;;;;8.45;2.58;;;;;;;13.17;76.23;96153.59;4987718;28;24898;-74
2023/01/02 11:12:23;;;;;;;8.90;2.63;;;;;;;13.28;73.86;96161.53;4981612;28;24804;-75
2023/01/02 11:14:49;;;;;;;9.30;2.95;;;;;;;13.38;75.29;96154.75;4983606;28;24437;-74
2023/01/02 11:17:19;;;;;;;12.77;3.10;;;;;;;13.40;74.61;96150.28;4990135;28;25017;-74
2023/01/02 11:19:47;;;;;;;11.45;2.88;;;;;;;13.50;71.64;96147.91;4989780;28;24465;-74
2023/01/02 11:22:16;;;;;;;18.17;2.90;;;;;;;13.60;70.88;96146.31;4978696;28;24991;-74
2023/01/02 11:24:58;;;;;;;10.90;2.88;;;;;;;13.71;70.47;96143.81;4988134;28;24449;-74
2023/01/02 11:27:31;;;;;;;16.23;3.03;;;;;;;13.85;68.98;96155.03;4982301;28;24449;-74
2023/01/02 11:29:57;;;;;;;14.98;3.00;;;;;;;13.81;68.98;96159.63;4987404;28;24525;-74
2023/01/02 11:32:28;;;;;;;8.48;2.40;;;;;;;14.05;66.39;96162.28;4978536;28;24465;-74
2023/01/02 11:34:57;;;;;;;13.68;3.63;;;;;;;14.01;68.62;96158.22;4981604;28;24444;-74
2023/01/02 11:37:24;;;;;;;11.70;2.80;;;;;;;14.10;67.33;96159.38;4983491;28;24997;-73
2023/01/02 11:39:59;;;;;;;8.77;2.90;;;;;;;13.99;67.96;96163.56;4989191;28;24448;-74